Time;durP1;ratioP1;P1;durP2;ratioP2;P2;SDS_P1;SDS_P2;PMS_P1;PMS_P2;Temp;Humidity;BMP_temperature;BMP_pressure;BME280_temperature;BME280_humidity;BME280_pressure;Samples;Min_cycle;Max_cycle;Signal;HPM_P1;HPM_P2
2022/09/29 00:08:26;;;;;;;1.20;1.00;;;11.10;99.90;;;;;;20908438;28;20627;-69
2022/09/29 00:18:30;;;;;;;1.83;1.10;;;11.20;99.90;;;;;;20907750;28;20700;-69
2022/09/29 00:28:32;;;;;;;1.80;1.20;;;;;;;;;;20909433;28;20259;-69
2022/09/29 00:38:34;;;;;;;3.03;1.43;;;;;;;;;;20907958;28;20571;-69
2022/09/29 00:48:36;;;;;;;2.10;1.60;;;;;;;;;;20907384;28;20226;-69
2022/09/29 00:58:41;;;;;;;2.40;1.30;;;;;;;;;;20906021;28;20221;-69
2022/09/29 01:08:56;;;;;;;2.30;1.27;;;10.80;99.90;;;;;;20905930;28;20629;-69
2022/09/29 01:18:59;;;;;;;2.33;1.47;;;;;;;;;;20903106;28;20704;-69
2022/09/29 01:29:19;;;;;;;2.07;1.40;;;;;;;;;;20903594;28;20205;-69
2022/09/29 01:39:34;;;;;;;3.10;2.03;;;;;;;;;;20903562;28;20205;-69
2022/09/29 01:49:42;;;;;;;3.03;1.60;;;10.80;99.90;;;;;;20902988;28;20677;-69
2022/09/29 01:59:50;;;;;;;2.23;1.60;;;10.80;99.90;;;;;;20898945;28;20218;-69
2022/09/29 02:09:57;;;;;;;2.83;1.73;;;;;;;;;;20897728;28;20291;-69
2022/09/29 02:19:59;;;;;;;2.87;1.50;;;;;;;;;;20893417;28;20259;-69
2022/09/29 02:30:00;;;;;;;2.17;1.30;;;;;;;;;;20901541;28;20217;-69
2022/09/29 02:40:26;;;;;;;2.50;1.50;;;10.70;99.90;;;;;;20908465;28;20246;-69
2022/09/29 02:50:40;;;;;;;2.37;1.10;;;;;;;;;;20910030;28;20221;-69
2022/09/29 03:00:42;;;;;;;1.80;1.20;;;;;;;;;;20877315;28;1103078;-69
2022/09/29 03:10:44;;;;;;;3.33;1.70;;;;;;;;;;20914441;28;20217;-69
2022/09/29 03:20:46;;;;;;;2.50;1.47;;;;;;;;;;20905908;28;20576;-69
2022/09/29 03:30:48;;;;;;;2.37;1.50;;;;;;;;;;20912920;28;20209;-70
2022/09/29 03:40:50;;;;;;;1.73;1.20;;;;;;;;;;20912163;28;20206;-69
2022/09/29 03:50:53;;;;;;;2.13;1.23;;;10.20;99.90;;;;;;20911392;28;20250;-69
2022/09/29 04:00:55;;;;;;;1.80;1.20;;;;;;;;;;20972985;28;20290;-69
2022/09/29 04:10:57;;;;;;;2.67;1.70;;;;;;;;;;20992955;28;20575;-69
2022/09/29 04:21:03;;;;;;;3.47;1.47;;;10.00;99.90;;;;;;20991187;28;20182;-69
2022/09/29 04:31:05;;;;;;;4.80;1.30;;;10.10;99.90;;;;;;20991625;28;20686;-69
2022/09/29 04:41:07;;;;;;;3.53;1.40;;;;;;;;;;20989990;28;20199;-69
2022/09/29 04:51:09;;;;;;;1.80;1.00;;;;;;;;;;20971972;28;20625;-70
2022/09/29 05:01:12;;;;;;;3.73;1.30;;;;;;;;;;20987982;28;20205;-69
2022/09/29 05:11:14;;;;;;;1.73;1.07;;;;;;;;;;20970910;28;20274;-69
2022/09/29 05:21:16;;;;;;;3.70;1.47;;;;;;;;;;20979030;28;20591;-69
2022/09/29 05:31:21;;;;;;;1.83;1.13;;;;;;;;;;20976207;28;20228;-69
2022/09/29 05:41:22;;;;;;;1.60;1.00;;;;;;;;;;20984901;28;20765;-69
2022/09/29 05:51:28;;;;;;;1.80;1.03;;;;;;;;;;20984639;28;20220;-69
2022/09/29 06:01:31;;;;;;;3.83;1.83;;;;;;;;;;20983316;28;20221;-69
2022/09/29 06:11:33;;;;;;;2.07;1.33;;;;;;;;;;20954722;28;20237;-69
2022/09/29 06:21:36;;;;;;;2.60;1.50;;;;;;;;;;20979124;28;20634;-70
2022/09/29 06:31:38;;;;;;;2.53;1.70;;;;;;;;;;20984082;28;20243;-69
2022/09/29 06:41:40;;;;;;;2.40;1.60;;;10.00;99.90;;;;;;20963543;28;20773;-69
2022/09/29 06:51:43;;;;;;;2.27;1.50;;;10.00;99.90;;;;;;20982436;28;20213;-69
2022/09/29 07:01:48;;;;;;;1.97;1.27;;;;;;;;;;20982482;28;20205;-69
2022/09/29 07:11:51;;;;;;;2.47;1.50;;;;;;;;;;20959746;28;20266;-70
2022/09/29 07:21:52;;;;;;;1.63;1.17;;;;;;;;;;20993859;28;20208;-70
2022/09/29 07:31:54;;;;;;;2.33;1.33;;;;;;;;;;20995565;28;20691;-70
2022/09/29 07:41:57;;;;;;;1.77;1.10;;;;;;;;;;20988341;28;20350;-69
2022/09/29 07:51:59;;;;;;;1.67;1.13;;;;;;;;;;20994809;28;20229;-69
2022/09/29 08:02:01;;;;;;;2.10;1.30;;;;;;;;;;20985604;28;20213;-70
2022/09/29 08:12:03;;;;;;;2.67;1.43;;;;;;;;;;20983144;28;20217;-69
2022/09/29 08:22:05;;;;;;;2.23;1.20;;;;;;;;;;20981386;28;20622;-70
2022/09/29 08:32:07;;;;;;;2.23;1.70;;;;;;;;;;20988365;28;20572;-70
2022/09/29 08:42:27;;;;;;;3.23;1.60;;;10.40;99.90;;;;;;20990578;28;20201;-70
2022/09/29 08:52:38;;;;;;;3.30;2.13;;;;;;;;;;21000847;22;20237;-70
2022/09/29 09:02:51;;;;;;;4.17;1.90;;;10.50;99.90;;;;;;20875834;28;20217;-70
2022/09/29 09:13:02;;;;;;;3.83;2.20;;;10.70;99.90;;;;;;20885106;28;20271;-70
2022/09/29 09:23:14;;;;;;;4.67;1.93;;;;;;;;;;20869627;28;20734;-70
2022/09/29 09:33:40;;;;;;;3.27;1.93;;;11.70;99.90;;;;;;20808042;28;20705;-67
2022/09/29 09:43:44;;;;;;;3.50;2.07;;;;;;;;;;20900525;28;20201;-67
2022/09/29 09:53:47;;;;;;;4.93;1.90;;;;;;;;;;20855477;28;20221;-67
2022/09/29 10:03:49;;;;;;;5.50;2.60;;;;;;;;;;20855341;28;20194;-68
2022/09/29 10:14:09;;;;;;;3.43;2.10;;;12.20;99.90;;;;;;20854294;28;20217;-70
2022/09/29 10:24:28;;;;;;;3.47;2.07;;;12.30;99.90;;;;;;20886179;28;20218;-67
2022/09/29 10:34:31;;;;;;;3.00;1.80;;;;;;;;;;20853482;28;20569;-67
2022/09/29 10:44:34;;;;;;;3.53;1.93;;;;;;;;;;20868440;28;20225;-68
2022/09/29 10:54:50;;;;;;;2.57;1.80;;;13.20;99.90;;;;;;20855524;28;20252;-67
2022/09/29 11:04:53;;;;;;;3.70;1.97;;;;;;;;;;20884223;28;20596;-70
2022/09/29 11:14:55;;;;;;;3.47;2.10;;;;;;;;;;20879985;28;20791;-70
2022/09/29 11:24:57;;;;;;;3.10;2.07;;;;;;;;;;20873688;28;20217;-70
2022/09/29 11:35:04;;;;;;;3.80;2.20;;;;;;;;;;20850868;28;20206;-68
2022/09/29 11:45:14;;;;;;;3.17;1.90;;;;;;;;;;20879867;28;20720;-67
2022/09/29 11:55:15;;;;;;;3.73;2.20;;;;;;;;;;20903054;28;20229;-67
2022/09/29 12:05:17;;;;;;;2.30;1.73;;;;;;;;;;20928726;28;20225;-67
2022/09/29 12:15:52;;;;;;;3.07;1.43;;;13.20;99.90;;;;;;20859150;28;20279;-67
2022/09/29 12:26:13;;;;;;;3.50;1.67;;;;;;;;;;20865748;28;20227;-67
2022/09/29 12:46:47;;;;;;;1.83;1.10;;;;;;;;;;20871605;28;20684;-70
2022/09/29 12:57:05;;;;;;;1.67;1.23;;;;;;;;;;20880610;28;20290;-67
2022/09/29 13:07:23;;;;;;;3.53;1.50;;;13.60;99.90;;;;;;20893203;28;20229;-68
2022/09/29 13:17:25;;;;;;;1.97;1.20;;;;;;;;;;20882615;28;20209;-67
2022/09/29 13:27:35;;;;;;;2.10;1.40;;;;;;;;;;20927836;28;20218;-67
2022/09/29 13:37:47;;;;;;;2.37;1.40;;;;;;;;;;20901108;28;20212;-68
2022/09/29 13:47:51;;;;;;;2.00;1.17;;;13.80;99.90;;;;;;20868861;28;20244;-68
2022/09/29 13:57:54;;;;;;;2.50;0.90;;;;;;;;;;20875307;28;20233;-68
2022/09/29 14:07:59;;;;;;;2.30;0.83;;;;;;;;;;20833295;28;20302;-68
2022/09/29 14:18:03;;;;;;;2.17;0.90;;;;;;;;;;20882756;28;20756;-69
2022/09/29 14:28:17;;;;;;;1.10;0.70;;;13.90;99.90;;;;;;20938086;28;20288;-69
2022/09/29 14:38:44;;;;;;;1.13;0.60;;;13.90;99.90;;;;;;20918469;28;20259;-69
2022/09/29 14:59:41;;;;;;;1.73;0.73;;;;;;;;;;20925210;22;20225;-72
2022/09/29 15:09:48;;;;;;;1.30;0.73;;;;;;;;;;20960361;28;20217;-74
2022/09/29 15:19:59;;;;;;;1.73;1.00;;;;;;;;;;20961260;28;20290;-73
2022/09/29 15:30:01;;;;;;;1.77;0.60;;;;;;;;;;20975447;28;20229;-73
2022/09/29 15:40:13;;;;;;;1.60;1.23;;;;;;;;;;20982932;28;20225;-73
2022/09/29 15:50:24;;;;;;;3.40;1.40;;;13.40;99.90;;;;;;20970708;28;20221;-72
2022/09/29 16:00:26;;;;;;;1.60;1.20;;;;;;;;;;20993938;28;20223;-72
2022/09/29 16:10:29;;;;;;;5.43;2.97;;;;;;;;;;21043383;28;20224;-73
2022/09/29 16:20:33;;;;;;;1.93;1.10;;;;;;;;;;21073846;28;20277;-72
2022/09/29 16:30:37;;;;;;;3.03;1.60;;;;;;;;;;20998246;28;20222;-72
2022/09/29 16:40:39;;;;;;;1.70;0.90;;;;;;;;;;21042015;28;20233;-72
2022/09/29 16:50:46;;;;;;;1.27;0.70;;;12.60;99.90;;;;;;21032486;28;20221;-72
2022/09/29 17:00:48;;;;;;;3.67;1.30;;;;;;;;;;20969062;28;20267;-73
2022/09/29 17:10:52;;;;;;;3.33;1.60;;;;;;;;;;20988029;28;20220;-73
2022/09/29 17:20:54;;;;;;;2.10;1.10;;;;;;;;;;20998368;28;20213;-73
2022/09/29 17:30:56;;;;;;;5.30;2.73;;;;;;;;;;20986115;28;20270;-73
2022/09/29 17:40:59;;;;;;;0.80;0.67;;;;;;;;;;20985619;28;20217;-72
2022/09/29 17:51:02;;;;;;;0.53;0.40;;;;;;;;;;21055348;28;20246;-72
2022/09/29 18:01:05;;;;;;;0.43;0.40;;;;;;;;;;21051221;28;20237;-72
2022/09/29 18:11:08;;;;;;;2.40;0.47;;;;;;;;;;20965877;28;20753;-70
2022/09/29 18:21:10;;;;;;;0.80;0.60;;;;;;;;;;20982497;28;20244;-70
2022/09/29 18:31:22;;;;;;;0.77;0.60;;;12.60;99.90;;;;;;20963479;28;20297;-70
2022/09/29 18:41:23;;;;;;;1.07;0.40;;;;;;;;;;21042414;28;20566;-71
2022/09/29 18:51:25;;;;;;;0.90;0.30;;;;;;;;;;21049464;28;20208;-71
2022/09/29 19:01:28;;;;;;;1.60;0.60;;;;;;;;;;21027491;28;20237;-72
2022/09/29 19:11:32;;;;;;;0.80;0.70;;;;;;;;;;20985668;28;20567;-72
2022/09/29 19:21:34;;;;;;;1.07;0.40;;;;;;;;;;20989020;28;20256;-72
2022/09/29 19:31:37;;;;;;;0.70;0.67;;;;;;;;;;20977598;28;20692;-72
2022/09/29 19:41:39;;;;;;;1.20;0.77;;;;;;;;;;20994465;28;20746;-72
2022/09/29 19:51:51;;;;;;;1.87;1.00;;;;;;;;;;20995115;28;20217;-72
2022/09/29 20:01:54;;;;;;;3.83;0.97;;;;;;;;;;20992524;28;20632;-71
2022/09/29 20:11:57;;;;;;;1.63;0.80;;;;;;;;;;20974720;28;20229;-74
2022/09/29 20:21:58;;;;;;;1.30;0.80;;;;;;;;;;20987279;28;20634;-74
2022/09/29 20:32:00;;;;;;;1.20;0.77;;;;;;;;;;20991459;28;20217;-74
2022/09/29 20:42:02;;;;;;;1.43;0.80;;;;;;;;;;20973831;28;20262;-74
2022/09/29 20:52:04;;;;;;;0.73;0.40;;;;;;;;;;20989010;28;20583;-72
2022/09/29 21:02:09;;;;;;;0.83;0.50;;;;;;;;;;21010815;22;20298;-73
2022/09/29 21:12:10;;;;;;;1.17;0.70;;;;;;;;;;20989231;28;20677;-73
2022/09/29 21:22:12;;;;;;;0.70;0.50;;;;;;;;;;20988425;28;20251;-76
2022/09/29 21:32:34;;;;;;;0.60;0.50;;;;;;;;;;20961989;28;20241;-76
2022/09/29 21:42:39;;;;;;;1.40;0.70;;;;;;;;;;20978726;28;20286;-76
2022/09/29 21:52:42;;;;;;;1.43;0.87;;;;;;;;;;20967093;28;20237;-76
2022/09/29 22:02:56;;;;;;;1.30;0.90;;;;;;;;;;20985651;28;20480;-76
2022/09/29 22:12:57;;;;;;;1.47;0.80;;;;;;;;;;20984643;28;20217;-76
2022/09/29 22:23:02;;;;;;;1.20;0.80;;;;;;;;;;20977575;28;20209;-76
2022/09/29 22:33:08;;;;;;;1.57;0.90;;;;;;;;;;20980135;28;20221;-76
2022/09/29 22:43:13;;;;;;;1.43;0.60;;;;;;;;;;20982839;28;20294;-76
2022/09/29 22:53:24;;;;;;;1.30;0.70;;;;;;;;;;20997548;28;21411;-76
2022/09/29 23:03:28;;;;;;;0.93;0.60;;;;;;;;;;20980731;28;20275;-76
2022/09/29 23:13:38;;;;;;;1.13;0.63;;;;;;;;;;20996902;28;20586;-78
2022/09/29 23:24:02;;;;;;;1.50;0.80;;;;;;;;;;20995210;28;20271;-75
2022/09/29 23:34:13;;;;;;;1.17;0.77;;;;;;;;;;20979836;28;20213;-76
2022/09/29 23:44:22;;;;;;;0.80;0.70;;;11.30;99.90;;;;;;20996310;28;20209;-75
2022/09/29 23:54:25;;;;;;;1.57;0.80;;;;;;;;;;20994275;28;20715;-75
